Map

Track Data

SID SEASON NUMBER BASIN SUBBASIN NAME ISO_TIME NATURE LAT LON WMO_WIND WMO_PRES WMO_AGENCY TRACK_TYPE DIST2LAND LANDFALL IFLAG USA_AGENCY USA_ATCF_ID USA_LAT USA_LON USA_RECORD USA_STATUS USA_WIND USA_PRES USA_SSHS USA_R34_NE USA_R34_SE USA_R34_SW USA_R34_NW USA_R50_NE USA_R50_SE USA_R50_SW USA_R50_NW USA_R64_NE USA_R64_SE USA_R64_SW USA_R64_NW USA_POCI USA_ROCI USA_RMW USA_EYE TOKYO_LAT TOKYO_LON TOKYO_GRADE TOKYO_WIND TOKYO_PRES TOKYO_R50_DIR TOKYO_R50_LONG TOKYO_R50_SHORT TOKYO_R30_DIR TOKYO_R30_LONG TOKYO_R30_SHORT TOKYO_LAND CMA_LAT CMA_LON CMA_CAT CMA_WIND CMA_PRES HKO_LAT HKO_LON HKO_CAT HKO_WIND HKO_PRES NEWDELHI_LAT NEWDELHI_LON NEWDELHI_GRADE NEWDELHI_WIND NEWDELHI_PRES NEWDELHI_CI NEWDELHI_DP NEWDELHI_POCI REUNION_LAT REUNION_LON REUNION_TYPE REUNION_WIND REUNION_PRES REUNION_TNUM REUNION_CI REUNION_RMW REUNION_R34_NE REUNION_R34_SE REUNION_R34_SW REUNION_R34_NW REUNION_R50_NE REUNION_R50_SE REUNION_R50_SW REUNION_R50_NW REUNION_R64_NE REUNION_R64_SE REUNION_R64_SW REUNION_R64_NW BOM_LAT BOM_LON BOM_TYPE BOM_WIND BOM_PRES BOM_TNUM BOM_CI BOM_RMW BOM_R34_NE BOM_R34_SE BOM_R34_SW BOM_R34_NW BOM_R50_NE BOM_R50_SE BOM_R50_SW BOM_R50_NW BOM_R64_NE BOM_R64_SE BOM_R64_SW BOM_R64_NW BOM_ROCI BOM_POCI BOM_EYE BOM_POS_METHOD BOM_PRES_METHOD NADI_LAT NADI_LON NADI_CAT NADI_WIND NADI_PRES WELLINGTON_LAT WELLINGTON_LON WELLINGTON_WIND WELLINGTON_PRES DS824_LAT DS824_LON DS824_STAGE DS824_WIND DS824_PRES TD9636_LAT TD9636_LON TD9636_STAGE TD9636_WIND TD9636_PRES TD9635_LAT TD9635_LON TD9635_WIND TD9635_PRES TD9635_ROCI NEUMANN_LAT NEUMANN_LON NEUMANN_CLASS NEUMANN_WIND NEUMANN_PRES MLC_LAT MLC_LON MLC_CLASS MLC_WIND MLC_PRES USA_GUST BOM_GUST BOM_GUST_PER REUNION_GUST REUNION_GUST_PER USA_SEAHGT USA_SEARAD_NE USA_SEARAD_SE USA_SEARAD_SW USA_SEARAD_NW STORM_SPEED STORM_DIR
1946222N15152 1946 44 WP MM LILLY 1946-08-10 00:00:00 TS 14.6000 152.400 main 1945 1945 O________OOO__ jtwc_wp WP081946 14.6000 152.400 40 0 14.6000 152.400 TC 40 14.6000 152.400 2 40 14.6000 152.400 40 997 240 8 340
1946222N15152 1946 44 WP MM LILLY 1946-08-10 03:00:00 TS 14.9945 152.254 main 1988 1987 P________PPP__ WP081946 14.9925 152.260 45 0 14.9925 152.260 TC 45 15.0006 152.237 2 45 14.9925 152.260 45 994 270 9 340
1946222N15152 1946 44 WP MM LILLY 1946-08-10 06:00:00 TS 15.4027 152.092 main 2027 2027 O________OPO__ jtwc_wp WP081946 15.4000 152.100 50 0 15.4000 152.100 TC 50 15.4109 152.070 2 50 15.4000 152.100 50 992 300 9 338
1946222N15152 1946 44 WP MM LILLY 1946-08-10 09:00:00 TS 15.8364 151.904 main 2065 2065 P________PPP__ WP081946 15.8350 151.907 55 0 15.8350 151.907 TC 55 15.8408 151.892 2 55 15.8350 151.907 55 988 330 10 337
1946222N15152 1946 44 WP MM LILLY 1946-08-10 12:00:00 TS 16.3000 151.700 main 2114 2114 O________OOO__ jtwc_wp WP081946 16.3000 151.700 60 0 16.3000 151.700 TC 60 16.3000 151.700 2 60 16.3000 151.700 60 985 360 10 338
1946222N15152 1946 44 WP MM LILLY 1946-08-10 15:00:00 TS 16.7925 151.493 main 2164 2164 P________PPP__ WP081946 16.7925 151.492 65 1 16.7925 151.492 TC 65 16.7927 151.494 2 65 16.7925 151.492 65 980 360 11 339
1946222N15152 1946 44 WP MM LILLY 1946-08-10 18:00:00 TS 17.3000 151.300 main 2214 2212 O________OOO__ jtwc_wp WP081946 17.3000 151.300 70 1 17.3000 151.300 TC 70 17.3000 151.300 3 70 17.3000 151.300 70 976 360 11 342
1946222N15152 1946 44 WP MM LILLY 1946-08-10 21:00:00 TS 17.8155 151.143 main 2207 2153 P________PPP__ WP081946 17.8150 151.142 75 1 17.8150 151.142 TC 75 17.8171 151.147 3 75 17.8150 151.142 75 970 420 10 344
1946222N15152 1946 44 WP MM LILLY 1946-08-11 00:00:00 TS 18.3000 151.000 main 2153 2108 O________OOO__ jtwc_wp WP081946 18.3000 151.000 80 1 18.3000 151.000 TC 80 18.3000 151.000 4 80 18.3000 151.000 80 965 480 10 343
1946222N15152 1946 44 WP MM LILLY 1946-08-11 03:00:00 TS 18.7316 150.855 main 2108 2059 P________PPP__ WP081946 18.7374 150.865 85 2 18.7374 150.865 TC 85 18.7140 150.826 4 85 18.7374 150.865 85 960 510 9 339
1946222N15152 1946 44 WP MM LILLY 1946-08-11 06:00:00 TS 19.0906 150.683 main 2059 2020 O________OPO__ jtwc_wp WP081946 19.1000 150.700 90 2 19.1000 150.700 TC 90 19.0624 150.634 4 90 19.1000 150.700 90 956 540 7 330
1946222N15152 1946 44 WP MM LILLY 1946-08-11 09:00:00 TS 19.3737 150.455 main 2020 1985 P________PPP__ WP081946 19.3800 150.465 95 2 19.3800 150.465 TC 95 19.3546 150.425 4 95 19.3800 150.465 95 952 510 7 318
1946222N15152 1946 44 WP MM LILLY 1946-08-11 12:00:00 TS 19.6000 150.200 main 1985 1955 O________OOO__ jtwc_wp WP081946 19.6000 150.200 100 3 19.6000 150.200 TC 100 19.6000 150.200 4 100 19.6000 150.200 100 948 480 6 313
1946222N15152 1946 44 WP MM LILLY 1946-08-11 15:00:00 TS 19.8188 149.956 main 1955 1921 P________PPP__ WP081946 19.8150 149.950 100 3 19.8150 149.950 TC 100 19.8302 149.972 4 102 19.8150 149.950 100 944 510 6 311
1946222N15152 1946 44 WP MM LILLY 1946-08-11 18:00:00 TS 20.0043 149.707 main 1921 1891 O________OPO__ jtwc_wp WP081946 20.0000 149.700 100 3 20.0000 149.700 TC 100 20.0173 149.730 4 105 20.0000 149.700 100 941 540 6 307
1946222N15152 1946 44 WP MM LILLY 1946-08-11 21:00:00 TS 20.1664 149.461 main 1891 1867 P________PPP__ WP081946 20.1649 149.457 105 3 20.1649 149.457 TC 105 20.1708 149.472 4 107 20.1649 149.457 105 938 510 6 302
1946222N15152 1946 44 WP MM LILLY 1946-08-12 00:00:00 TS 20.3000 149.200 main 1867 1843 O________OOO__ jtwc_wp WP081946 20.3000 149.200 110 3 20.3000 149.200 TC 110 20.3000 149.200 4 110 20.3000 149.200 110 935 480 6 295
1946222N15152 1946 44 WP MM LILLY 1946-08-12 03:00:00 TS 20.4130 148.907 main 1843 1819 P________PPP__ WP081946 20.4075 148.907 115 4 20.4075 148.907 TC 115 20.4297 148.906 4 112 20.4075 148.907 115 932 480 6 290
1946222N15152 1946 44 WP MM LILLY 1946-08-12 06:00:00 TS 20.5094 148.600 main 1819 1795 O________OPO__ jtwc_wp WP081946 20.5000 148.600 120 4 20.5000 148.600 TC 120 20.5376 148.600 4 115 20.5000 148.600 120 930 480 6 289
1946222N15152 1946 44 WP MM LILLY 1946-08-12 09:00:00 TS 20.6123 148.287 main 1795 1772 P________PPP__ WP081946 20.6075 148.285 120 4 20.6075 148.285 TC 120 20.6266 148.294 4 117 20.6075 148.285 120 929 510 6 289
1946222N15152 1946 44 WP MM LILLY 1946-08-12 12:00:00 TS 20.7000 148.000 main 1772 1753 O________OOO__ jtwc_wp WP081946 20.7000 148.000 120 4 20.7000 148.000 TC 120 20.7000 148.000 4 120 20.7000 148.000 120 928 540 5 287
1946222N15152 1946 44 WP MM LILLY 1946-08-12 15:00:00 TS 20.7540 147.786 main 1753 1744 P________PPP__ WP081946 20.7574 147.800 122 4 20.7574 147.800 TC 122 20.7438 147.743 4 117 20.7574 147.800 122 927 540 4 283
1946222N15152 1946 44 WP MM LILLY 1946-08-12 18:00:00 TS 20.7943 147.575 main 1744 1732 O________OPO__ jtwc_wp WP081946 20.8000 147.600 125 4 20.8000 147.600 TC 125 20.7771 147.499 4 115 20.8000 147.600 125 927 540 5 281
1946222N15152 1946 44 WP MM LILLY 1946-08-12 21:00:00 TS 20.8373 147.306 main 1732 1710 P________PPP__ WP081946 20.8425 147.322 117 4 20.8425 147.322 TC 117 20.8219 147.256 4 112 20.8425 147.322 117 928 570 5 281
1946222N15152 1946 44 WP MM LILLY 1946-08-13 00:00:00 TS 20.9000 147.000 main 1710 1688 O________OOO__ jtwc_wp WP081946 20.9000 147.000 110 3 20.9000 147.000 TC 110 20.9000 147.000 4 110 20.9000 147.000 110 929 600 6 284
1946222N15152 1946 44 WP MM LILLY 1946-08-13 03:00:00 TS 20.9853 146.660 main 1688 1662 P________PPP__ WP081946 20.9701 146.642 110 3 20.9701 146.642 TC 110 21.0309 146.714 4 110 20.9701 146.642 110 933 600 7 290
1946222N15152 1946 44 WP MM LILLY 1946-08-13 06:00:00 TS 21.1244 146.329 main 1662 1634 O________OPO__ jtwc_wp WP081946 21.1000 146.300 110 3 21.1000 146.300 TC 110 21.1974 146.415 4 110 21.1000 146.300 110 938 600 7 303
1946222N15152 1946 44 WP MM LILLY 1946-08-13 09:00:00 TS 21.3487 146.064 main 1634 1592 P________PPP__ WP081946 21.3348 146.050 110 3 21.3348 146.050 TC 110 21.3903 146.108 4 110 21.3348 146.050 110 939 570 7 314
1946222N15152 1946 44 WP MM LILLY 1946-08-13 12:00:00 TS 21.6000 145.800 main 1592 1560 O________OOO__ jtwc_wp WP081946 21.6000 145.800 110 3 21.6000 145.800 TC 110 21.6000 145.800 4 110 21.6000 145.800 110 940 540 7 308
1946222N15152 1946 44 WP MM LILLY 1946-08-13 15:00:00 TS 21.7884 145.465 main 1560 1526 P________PPP__ WP081946 21.8001 145.450 110 3 21.8001 145.450 TC 110 21.7535 145.511 4 112 21.8001 145.450 110 939 570 7 302
1946222N15152 1946 44 WP MM LILLY 1946-08-13 18:00:00 TS 21.9824 145.130 main 1526 1498 O________OPO__ jtwc_wp WP081946 22.0000 145.100 110 3 22.0000 145.100 TC 110 21.9296 145.220 4 115 22.0000 145.100 110 939 600 7 307
1946222N15152 1946 44 WP MM LILLY 1946-08-13 21:00:00 TS 22.2007 144.873 main 1498 1457 P________PPP__ WP081946 22.2123 144.857 115 4 22.2123 144.857 TC 115 22.1659 144.920 4 117 22.2123 144.857 115 937 600 7 317
1946222N15152 1946 44 WP MM LILLY 1946-08-14 00:00:00 TS 22.5000 144.600 main 1457 1402 O________OOO__ jtwc_wp WP081946 22.5000 144.600 120 4 22.5000 144.600 TC 120 22.5000 144.600 4 120 22.5000 144.600 120 936 600 9 320
1946222N15152 1946 44 WP MM LILLY 1946-08-14 03:00:00 TS 22.9158 144.218 main 1402 1337 P________PPP__ WP081946 22.8826 144.215 120 4 22.8826 144.215 TC 120 23.0153 144.228 4 120 22.8826 144.215 120 934 600 12 323
1946222N15152 1946 44 WP MM LILLY 1946-08-14 06:00:00 TS 23.4551 143.809 main 1327 1254 O________OPO__ jtwc_wp WP081946 23.4000 143.800 120 4 23.4000 143.800 TC 120 23.6205 143.838 4 120 23.4000 143.800 120 933 600 14 330
1946222N15152 1946 44 WP MM LILLY 1946-08-14 09:00:00 TS 24.1407 143.434 main 1251 1168 P________PPP__ WP081946 24.1075 143.428 120 4 24.1075 143.428 TC 120 24.2404 143.453 4 120 24.1075 143.428 120 933 570 15 334
1946222N15152 1946 44 WP MM LILLY 1946-08-14 12:00:00 TS 24.8000 143.100 main 1168 1117 O________OOO__ jtwc_wp WP081946 24.8000 143.100 120 4 24.8000 143.100 TC 120 24.8000 143.100 4 120 24.8000 143.100 120 933 540 12 334
1946222N15152 1946 44 WP MM LILLY 1946-08-14 15:00:00 TS 25.2485 142.833 main 1117 1068 P________PPP__ WP081946 25.2673 142.835 120 4 25.2673 142.835 TC 120 25.1920 142.828 4 117 25.2673 142.835 120 934 570 9 330
1946222N15152 1946 44 WP MM LILLY 1946-08-14 18:00:00 TS 25.5791 142.597 main 1068 1040 O________OPO__ jtwc_wp WP081946 25.6000 142.600 120 4 25.6000 142.600 TC 120 25.5164 142.590 4 115 25.6000 142.600 120 935 600 7 325
1946222N15152 1946 44 WP MM LILLY 1946-08-14 21:00:00 TS 25.8449 142.368 main 1040 999 P________PPP__ WP081946 25.8573 142.372 115 4 25.8573 142.372 TC 115 25.8077 142.356 4 112 25.8573 142.372 115 937 600 7 319
1946222N15152 1946 44 WP MM LILLY 1946-08-15 00:00:00 TS 26.1000 142.100 main 999 958 O________OOO__ jtwc_wp WP081946 26.1000 142.100 110 3 26.1000 142.100 TC 110 26.1000 142.100 4 110 26.1000 142.100 110 940 600 8 316
1946222N15152 1946 44 WP MM LILLY 1946-08-15 03:00:00 TS 26.4410 141.732 main 955 904 P________PPP__ WP081946 26.4352 141.708 110 3 26.4352 141.708 TC 110 26.4586 141.807 4 110 26.4352 141.708 110 944 600 10 316
1946222N15152 1946 44 WP MM LILLY 1946-08-15 06:00:00 TS 26.8054 141.346 main 902 864 O________OPO__ jtwc_wp WP081946 26.8000 141.300 110 3 26.8000 141.300 TC 110 26.8216 141.482 4 110 26.8000 141.300 110 949 600 10 320
1946222N15152 1946 44 WP MM LILLY 1946-08-15 09:00:00 TS 27.1669 141.040 main 851 808 P________PPP__ WP081946 27.1646 141.015 110 3 27.1646 141.015 TC 110 27.1739 141.116 4 110 27.1646 141.015 110 949 570 9 320
1946222N15152 1946 44 WP MM LILLY 1946-08-15 12:00:00 TS 27.5000 140.700 main 808 758 O________OOO__ jtwc_wp WP081946 27.5000 140.700 110 3 27.5000 140.700 TC 110 27.5000 140.700 4 110 27.5000 140.700 110 950 540 9 310
1946222N15152 1946 44 WP MM LILLY 1946-08-15 15:00:00 TS 27.7715 140.235 main 752 708 P________PPP__ WP081946 27.7650 140.237 110 3 27.7650 140.237 TC 110 27.7910 140.229 4 110 27.7650 140.237 110 949 510 10 300
1946222N15152 1946 44 WP MM LILLY 1946-08-15 18:00:00 TS 28.0131 139.702 main 708 654 O________OPO__ jtwc_wp WP081946 28.0000 139.700 110 3 28.0000 139.700 TC 110 28.0526 139.710 4 110 28.0000 139.700 110 948 480 11 297
1946222N15152 1946 44 WP MM LILLY 1946-08-15 21:00:00 TS 28.2651 139.147 main 650 608 P________PPP__ WP081946 28.2575 139.143 110 3 28.2575 139.143 TC 110 28.2877 139.160 4 110 28.2575 139.143 110 945 420 11 297
1946222N15152 1946 44 WP MM LILLY 1946-08-16 00:00:00 TS 28.5000 138.600 main 608 571 O________OOO__ jtwc_wp WP081946 28.5000 138.600 110 3 28.5000 138.600 TC 110 28.5000 138.600 4 110 28.5000 138.600 110 943 360 10 297
1946222N15152 1946 44 WP MM LILLY 1946-08-16 03:00:00 TS 28.7128 138.138 main 568 533 P________PPP__ WP081946 28.7143 138.165 110 3 28.7143 138.165 TC 110 28.7082 138.057 4 110 28.7143 138.165 110 941 330 9 296
1946222N15152 1946 44 WP MM LILLY 1946-08-16 06:00:00 TS 28.8986 137.652 main 533 495 O________OPO__ jtwc_wp WP081946 28.9000 137.700 110 3 28.9000 137.700 TC 110 28.8943 137.507 4 110 28.9000 137.700 110 940 300 10 290
1946222N15152 1946 44 WP MM LILLY 1946-08-16 09:00:00 TS 29.0692 137.032 main 493 471 P________PPP__ WP081946 29.0729 137.058 110 3 29.0729 137.058 TC 110 29.0582 136.954 4 110 29.0729 137.058 110 940 300 11 285
1946222N15152 1946 44 WP MM LILLY 1946-08-16 12:00:00 TS 29.2000 136.400 main 471 457 O________OOO__ jtwc_wp WP081946 29.2000 136.400 110 3 29.2000 136.400 TC 110 29.2000 136.400 4 110 29.2000 136.400 110 940 300 10 281
1946222N15152 1946 44 WP MM LILLY 1946-08-16 15:00:00 TS 29.2704 135.875 main 457 442 P________PPP__ WP081946 29.2494 135.892 110 3 29.2494 135.892 TC 110 29.3337 135.825 4 110 29.2494 135.892 110 940 300 9 279
1946222N15152 1946 44 WP MM LILLY 1946-08-16 18:00:00 TS 29.3363 135.364 main 442 388 O________OPO__ jtwc_wp WP081946 29.3000 135.400 110 3 29.3000 135.400 TC 110 29.4451 135.255 4 110 29.3000 135.400 110 940 300 10 282
1946222N15152 1946 44 WP MM LILLY 1946-08-16 21:00:00 TS 29.4712 134.760 main 388 334 P________PPP__ WP081946 29.4504 134.778 110 3 29.4504 134.778 TC 110 29.5338 134.707 4 110 29.4504 134.778 110 940 300 10 285
1946222N15152 1946 44 WP MM LILLY 1946-08-17 00:00:00 TS 29.6000 134.200 main 334 297 O________OOO__ jtwc_wp WP081946 29.6000 134.200 110 3 29.6000 134.200 TC 110 29.6000 134.200 4 110 29.6000 134.200 110 941 300 9 283
1946222N15152 1946 44 WP MM LILLY 1946-08-17 03:00:00 TS 29.6653 133.806 main 297 276 P________PPP__ WP081946 29.6719 133.827 105 3 29.6719 133.827 TC 105 29.6457 133.744 4 107 29.6719 133.827 105 942 330 7 278
1946222N15152 1946 44 WP MM LILLY 1946-08-17 06:00:00 TS 29.6929 133.458 main 276 243 O________OPO__ jtwc_wp WP081946 29.7000 133.500 100 3 29.7000 133.500 TC 100 29.6715 133.332 4 105 29.7000 133.500 100 943 360 7 273
1946222N15152 1946 44 WP MM LILLY 1946-08-17 09:00:00 TS 29.7024 133.020 main 243 221 P________PPP__ WP081946 29.7077 133.042 100 3 29.7077 133.042 TC 100 29.6865 132.954 4 102 29.7077 133.042 100 943 360 7 271
1946222N15152 1946 44 WP MM LILLY 1946-08-17 12:00:00 TS 29.7000 132.600 main 221 208 O________OOO__ jtwc_wp WP081946 29.7000 132.600 100 3 29.7000 132.600 TC 100 29.7000 132.600 4 100 29.7000 132.600 100 944 360 6 269
1946222N15152 1946 44 WP MM LILLY 1946-08-17 15:00:00 TS 29.6879 132.286 main 208 191 P________PPP__ WP081946 29.6922 132.285 95 2 29.6922 132.285 TC 95 29.6750 132.288 4 97 29.6922 132.285 95 946 330 5 269
1946222N15152 1946 44 WP MM LILLY 1946-08-17 18:00:00 TS 29.6895 131.998 main 191 173 O________OPO__ jtwc_wp WP081946 29.7000 132.000 90 2 29.7000 132.000 TC 90 29.6581 131.992 4 95 29.7000 132.000 90 948 300 5 271
1946222N15152 1946 44 WP MM LILLY 1946-08-17 21:00:00 TS 29.7005 131.667 main 173 145 P________PPP__ WP081946 29.7049 131.665 90 2 29.7049 131.665 TC 90 29.6873 131.675 4 92 29.7049 131.665 90 949 270 6 280
1946222N15152 1946 44 WP MM LILLY 1946-08-18 00:00:00 TS 29.8000 131.300 main 145 113 O________OOO__ jtwc_wp WP081946 29.8000 131.300 90 2 29.8000 131.300 TC 90 29.8000 131.300 4 90 29.8000 131.300 90 951 240 8 298
1946222N15152 1946 44 WP MM LILLY 1946-08-18 03:00:00 TS 30.0571 130.900 main 102 69 P________PPP__ WP081946 30.0544 130.952 85 2 30.0544 130.952 TC 85 30.0652 130.745 4 87 30.0544 130.952 85 952 240 10 308
1946222N15152 1946 44 WP MM LILLY 1946-08-18 06:00:00 TS 30.4020 130.410 main 72 62 O________OPO__ jtwc_wp WP081946 30.4000 130.500 80 1 30.4000 130.500 TC 80 30.4080 130.138 4 85 30.4000 130.500 80 953 240 13 305
1946222N15152 1946 44 WP MM LILLY 1946-08-18 09:00:00 TS 30.7676 129.707 main 65 65 P________PPP__ WP081946 30.7663 129.756 80 1 30.7663 129.756 TC 80 30.7715 129.561 4 82 30.7663 129.756 80 954 270 13 302
1946222N15152 1946 44 WP MM LILLY 1946-08-18 12:00:00 TS 31.1000 129.100 main 105 105 O________OOO__ jtwc_wp WP081946 31.1000 129.100 80 1 31.1000 129.100 TC 80 31.1000 129.100 4 80 31.1000 129.100 80 955 300 9 309
1946222N15152 1946 44 WP MM LILLY 1946-08-18 15:00:00 TS 31.3231 128.898 main 123 123 P________PPP__ WP081946 31.3293 128.909 80 1 31.3293 128.909 TC 80 31.3044 128.864 4 78 31.3293 128.909 80 956 300 4 333
1946222N15152 1946 44 WP MM LILLY 1946-08-18 18:00:00 TS 31.4927 128.864 main 125 125 O________OPO__ jtwc_wp WP081946 31.5000 128.900 80 1 31.5000 128.900 TC 80 31.4708 128.755 4 77 31.5000 128.900 80 958 300 3 341
1946222N15152 1946 44 WP MM LILLY 1946-08-18 21:00:00 TS 31.6386 128.779 main 134 129 P________PPP__ WP081946 31.6425 128.800 77 1 31.6425 128.800 TC 77 31.6268 128.718 4 76 31.6425 128.800 77 959 300 3 336
1946222N15152 1946 44 WP MM LILLY 1946-08-19 00:00:00 TS 31.8000 128.700 main 129 122 O________OOO__ jtwc_wp WP081946 31.8000 128.700 75 1 31.8000 128.700 TC 75 31.8000 128.700 4 75 31.8000 128.700 75 961 300 4 339
1946222N15152 1946 44 WP MM LILLY 1946-08-19 03:00:00 TS 32.0323 128.598 main 123 112 P________PPP__ WP081946 32.0350 128.593 72 1 32.0350 128.593 TC 72 32.0244 128.614 4 71 32.0350 128.593 72 964 270 5 342
1946222N15152 1946 44 WP MM LILLY 1946-08-19 06:00:00 TS 32.2925 128.509 main 117 112 O________OPO__ jtwc_wp WP081946 32.3000 128.500 70 1 32.3000 128.500 TC 70 32.2700 128.535 4 67 32.3000 128.500 70 967 240 5 346
1946222N15152 1946 44 WP MM LILLY 1946-08-19 09:00:00 TS 32.5451 128.448 main 120 112 P________PPP__ WP081946 32.5500 128.442 65 1 32.5500 128.442 TC 65 32.5306 128.464 4 63 32.5500 128.442 65 970 240 5 350
1946222N15152 1946 44 WP MM LILLY 1946-08-19 12:00:00 TS 32.8000 128.400 main 112 111 O________OOO__ jtwc_wp WP081946 32.8000 128.400 60 0 32.8000 128.400 TC 60 32.8000 128.400 2 60 32.8000 128.400 60 973 240 5 351
1946222N15152 1946 44 WP MM LILLY 1946-08-19 15:00:00 TS 33.0501 128.348 main 121 120 P________PPP__ WP081946 33.0425 128.350 57 0 33.0425 128.350 TC 57 33.0728 128.344 2 57 33.0425 128.350 57 975 240 5 350
1946222N15152 1946 44 WP MM LILLY 1946-08-19 18:00:00 TS 33.3095 128.299 main 120 120 O________OPO__ jtwc_wp WP081946 33.3000 128.300 55 0 33.3000 128.300 TC 55 33.3475 128.293 2 55 33.3000 128.300 55 978 240 5 351
1946222N15152 1946 44 WP MM LILLY 1946-08-19 21:00:00 TS 33.5776 128.249 main 117 86 P________PPP__ WP081946 33.5700 128.250 52 0 33.5700 128.250 TC 52 33.6235 128.245 2 52 33.5700 128.250 52 980 240 6 352
1946222N15152 1946 44 WP MM LILLY 1946-08-20 00:00:00 TS 33.9000 128.200 main 86 49 O________OOO__ jtwc_wp WP081946 33.9000 128.200 50 0 33.9000 128.200 TC 50 33.9000 128.200 2 50 33.9000 128.200 50 983 240 8 356
1946222N15152 1946 44 WP MM LILLY 1946-08-20 03:00:00 TS 34.3384 128.180 main 49 11 P________P_P__ WP081946 34.3424 128.187 47 0 34.3424 128.187 TC 47 2 34.3225 128.150 47 985 210 9 355
1946222N15152 1946 44 WP MM LILLY 1946-08-20 06:00:00 TS 34.8000 128.100 main 11 0 O________O_O__ jtwc_wp WP081946 34.8000 128.100 45 0 34.8000 128.100 TC 45 2 34.8000 128.100 45 988 180 8 339
1946222N15152 1946 44 WP MM LILLY 1946-08-20 09:00:00 TS 35.1052 127.830 main 0 0 P________P____ WP081946 35.1052 127.830 42 0 35.1052 127.830 TC 42 2 9 325
1946222N15152 1946 44 WP MM LILLY 1946-08-20 12:00:00 TS 35.5000 127.500 main 0 0 O________O____ jtwc_wp WP081946 35.5000 127.500 40 0 35.5000 127.500 TC 40 12 334
1946222N15152 1946 44 WP MM LILLY 1946-08-20 15:00:00 TS 36.2126 127.170 main 0 0 P________P____ WP081946 36.2126 127.170 37 0 36.2126 127.170 TC 37 16 345
1946222N15152 1946 44 WP MM LILLY 1946-08-20 18:00:00 TS 37.0000 127.000 main 0 0 O________O____ jtwc_wp WP081946 37.0000 127.000 35 0 37.0000 127.000 TC 35 14 0
1946222N15152 1946 44 WP MM LILLY 1946-08-20 21:00:00 TS 37.6503 127.150 main 0 0 P________P____ WP081946 37.6503 127.150 32 -1 37.6503 127.150 TC 32 13 18
1946222N15152 1946 44 WP MM LILLY 1946-08-21 00:00:00 TS 38.2000 127.500 main 0 O________O____ jtwc_wp WP081946 38.2000 127.500 30 -1 38.2000 127.500 TC 30 12 26

Digital Typhoon Data and Search

About IBTrACS Database

This database is a web-friendly format of International Best Track Archive for Climate Stewardship (IBTrACS), a global best track data archive curated by NOAA dating back to 1842.

Updated: 2021-10-21